sensor_id;sensor_type;location;lat;lon;timestamp;P1;durP1;ratioP1;P2;durP2;ratioP2
18340;SDS011;9296;48.084;16.352;2023-05-24T00:00:59;5.40;;;4.60;;
18340;SDS011;9296;48.084;16.352;2023-05-24T00:03:27;5.68;;;4.80;;
18340;SDS011;9296;48.084;16.352;2023-05-24T00:05:54;5.82;;;5.00;;
18340;SDS011;9296;48.084;16.352;2023-05-24T00:08:23;5.93;;;5.25;;
18340;SDS011;9296;48.084;16.352;2023-05-24T00:10:50;5.88;;;4.40;;
18340;SDS011;9296;48.084;16.352;2023-05-24T00:13:18;5.68;;;4.47;;
18340;SDS011;9296;48.084;16.352;2023-05-24T00:15:45;4.60;;;4.20;;
18340;SDS011;9296;48.084;16.352;2023-05-24T00:18:12;5.78;;;4.70;;
18340;SDS011;9296;48.084;16.352;2023-05-24T00:20:41;4.82;;;4.18;;
18340;SDS011;9296;48.084;16.352;2023-05-24T00:23:09;4.93;;;4.38;;
18340;SDS011;9296;48.084;16.352;2023-05-24T00:25:37;4.55;;;4.07;;
18340;SDS011;9296;48.084;16.352;2023-05-24T00:28:05;5.00;;;4.22;;
18340;SDS011;9296;48.084;16.352;2023-05-24T00:30:32;5.25;;;4.00;;
18340;SDS011;9296;48.084;16.352;2023-05-24T00:32:59;5.82;;;4.50;;
18340;SDS011;9296;48.084;16.352;2023-05-24T00:35:26;3.70;;;3.40;;
18340;SDS011;9296;48.084;16.352;2023-05-24T00:37:53;5.20;;;4.00;;
18340;SDS011;9296;48.084;16.352;2023-05-24T00:40:21;6.03;;;3.78;;
18340;SDS011;9296;48.084;16.352;2023-05-24T00:42:49;4.78;;;3.97;;
18340;SDS011;9296;48.084;16.352;2023-05-24T00:45:17;3.97;;;3.58;;
18340;SDS011;9296;48.084;16.352;2023-05-24T00:47:44;3.95;;;3.55;;
18340;SDS011;9296;48.084;16.352;2023-05-24T00:50:12;5.00;;;3.75;;
18340;SDS011;9296;48.084;16.352;2023-05-24T00:55:27;4.20;;;3.40;;
18340;SDS011;9296;48.084;16.352;2023-05-24T00:57:56;4.68;;;3.63;;
18340;SDS011;9296;48.084;16.352;2023-05-24T01:00:24;4.35;;;3.35;;
18340;SDS011;9296;48.084;16.352;2023-05-24T01:02:51;3.75;;;3.40;;
18340;SDS011;9296;48.084;16.352;2023-05-24T01:05:20;3.53;;;3.22;;
18340;SDS011;9296;48.084;16.352;2023-05-24T01:07:49;5.93;;;3.83;;
18340;SDS011;9296;48.084;16.352;2023-05-24T01:10:23;5.15;;;3.30;;
18340;SDS011;9296;48.084;16.352;2023-05-24T01:12:52;3.60;;;3.30;;
18340;SDS011;9296;48.084;16.352;2023-05-24T01:15:24;3.47;;;3.00;;
18340;SDS011;9296;48.084;16.352;2023-05-24T01:17:56;3.42;;;3.13;;
18340;SDS011;9296;48.084;16.352;2023-05-24T01:20:30;4.15;;;3.40;;
18340;SDS011;9296;48.084;16.352;2023-05-24T01:25:48;4.30;;;3.70;;
18340;SDS011;9296;48.084;16.352;2023-05-24T01:28:21;4.63;;;3.45;;
18340;SDS011;9296;48.084;16.352;2023-05-24T01:30:48;4.60;;;3.67;;
18340;SDS011;9296;48.084;16.352;2023-05-24T01:33:16;5.03;;;3.75;;
18340;SDS011;9296;48.084;16.352;2023-05-24T01:35:43;4.00;;;3.60;;
18340;SDS011;9296;48.084;16.352;2023-05-24T01:38:28;4.07;;;3.45;;
18340;SDS011;9296;48.084;16.352;2023-05-24T01:40:56;4.18;;;3.75;;
18340;SDS011;9296;48.084;16.352;2023-05-24T01:43:29;4.60;;;3.83;;
18340;SDS011;9296;48.084;16.352;2023-05-24T01:45:59;6.50;;;4.22;;
18340;SDS011;9296;48.084;16.352;2023-05-24T01:48:30;4.05;;;3.70;;
18340;SDS011;9296;48.084;16.352;2023-05-24T01:51:00;4.88;;;3.78;;
18340;SDS011;9296;48.084;16.352;2023-05-24T01:53:32;4.75;;;4.10;;
18340;SDS011;9296;48.084;16.352;2023-05-24T01:56:00;5.97;;;4.00;;
18340;SDS011;9296;48.084;16.352;2023-05-24T01:58:29;5.13;;;4.35;;
18340;SDS011;9296;48.084;16.352;2023-05-24T02:00:57;5.07;;;4.35;;
18340;SDS011;9296;48.084;16.352;2023-05-24T02:03:25;6.40;;;5.10;;
18340;SDS011;9296;48.084;16.352;2023-05-24T02:05:52;4.50;;;4.10;;
18340;SDS011;9296;48.084;16.352;2023-05-24T02:08:19;5.53;;;4.22;;
18340;SDS011;9296;48.084;16.352;2023-05-24T02:10:47;4.90;;;4.28;;
18340;SDS011;9296;48.084;16.352;2023-05-24T02:13:14;6.63;;;4.25;;
18340;SDS011;9296;48.084;16.352;2023-05-24T02:15:43;4.68;;;4.28;;
18340;SDS011;9296;48.084;16.352;2023-05-24T02:18:11;5.00;;;4.50;;
18340;SDS011;9296;48.084;16.352;2023-05-24T02:20:38;8.27;;;4.65;;
18340;SDS011;9296;48.084;16.352;2023-05-24T02:23:06;5.65;;;4.25;;
18340;SDS011;9296;48.084;16.352;2023-05-24T02:25:33;5.10;;;4.53;;
18340;SDS011;9296;48.084;16.352;2023-05-24T02:28:00;5.70;;;4.63;;
18340;SDS011;9296;48.084;16.352;2023-05-24T02:30:27;5.35;;;4.28;;
18340;SDS011;9296;48.084;16.352;2023-05-24T02:32:56;5.47;;;4.00;;
18340;SDS011;9296;48.084;16.352;2023-05-24T02:35:24;6.65;;;4.65;;
18340;SDS011;9296;48.084;16.352;2023-05-24T02:37:52;5.35;;;4.50;;
18340;SDS011;9296;48.084;16.352;2023-05-24T02:40:22;6.55;;;4.78;;
18340;SDS011;9296;48.084;16.352;2023-05-24T02:42:50;5.03;;;4.30;;
18340;SDS011;9296;48.084;16.352;2023-05-24T02:45:17;4.78;;;4.30;;
18340;SDS011;9296;48.084;16.352;2023-05-24T02:47:44;5.65;;;4.45;;
18340;SDS011;9296;48.084;16.352;2023-05-24T02:50:13;4.75;;;4.25;;
18340;SDS011;9296;48.084;16.352;2023-05-24T02:52:53;9.77;;;4.60;;
18340;SDS011;9296;48.084;16.352;2023-05-24T02:55:20;5.82;;;4.82;;
18340;SDS011;9296;48.084;16.352;2023-05-24T02:57:47;5.65;;;4.47;;
18340;SDS011;9296;48.084;16.352;2023-05-24T03:00:15;5.07;;;4.07;;
18340;SDS011;9296;48.084;16.352;2023-05-24T03:02:43;5.75;;;4.40;;
18340;SDS011;9296;48.084;16.352;2023-05-24T03:05:11;6.93;;;4.80;;
18340;SDS011;9296;48.084;16.352;2023-05-24T03:10:43;5.43;;;4.90;;
18340;SDS011;9296;48.084;16.352;2023-05-24T03:13:10;5.22;;;4.60;;
18340;SDS011;9296;48.084;16.352;2023-05-24T03:15:37;6.15;;;5.10;;
18340;SDS011;9296;48.084;16.352;2023-05-24T03:18:05;6.57;;;4.82;;
18340;SDS011;9296;48.084;16.352;2023-05-24T03:20:32;5.38;;;4.88;;
18340;SDS011;9296;48.084;16.352;2023-05-24T03:23:17;5.53;;;4.78;;
18340;SDS011;9296;48.084;16.352;2023-05-24T03:25:46;5.43;;;4.60;;
18340;SDS011;9296;48.084;16.352;2023-05-24T03:28:13;6.38;;;4.90;;
18340;SDS011;9296;48.084;16.352;2023-05-24T03:30:40;5.93;;;5.00;;
18340;SDS011;9296;48.084;16.352;2023-05-24T03:33:08;8.93;;;5.18;;
18340;SDS011;9296;48.084;16.352;2023-05-24T03:35:35;6.63;;;5.40;;
18340;SDS011;9296;48.084;16.352;2023-05-24T03:41:07;5.60;;;4.78;;
18340;SDS011;9296;48.084;16.352;2023-05-24T03:43:34;5.55;;;4.70;;
18340;SDS011;9296;48.084;16.352;2023-05-24T03:46:01;5.65;;;4.82;;
18340;SDS011;9296;48.084;16.352;2023-05-24T03:48:28;5.50;;;5.00;;
18340;SDS011;9296;48.084;16.352;2023-05-24T03:50:56;6.85;;;5.40;;
18340;SDS011;9296;48.084;16.352;2023-05-24T03:56:27;6.22;;;4.75;;
18340;SDS011;9296;48.084;16.352;2023-05-24T03:58:54;6.25;;;4.63;;
18340;SDS011;9296;48.084;16.352;2023-05-24T04:01:24;5.20;;;4.35;;
18340;SDS011;9296;48.084;16.352;2023-05-24T04:03:52;5.65;;;4.50;;
18340;SDS011;9296;48.084;16.352;2023-05-24T04:06:20;5.07;;;4.57;;
18340;SDS011;9296;48.084;16.352;2023-05-24T04:11:57;5.75;;;4.72;;
18340;SDS011;9296;48.084;16.352;2023-05-24T04:14:25;5.40;;;4.32;;
18340;SDS011;9296;48.084;16.352;2023-05-24T04:16:52;5.38;;;4.60;;
18340;SDS011;9296;48.084;16.352;2023-05-24T04:19:19;5.80;;;4.68;;
18340;SDS011;9296;48.084;16.352;2023-05-24T04:21:46;7.38;;;4.22;;
18340;SDS011;9296;48.084;16.352;2023-05-24T04:24:13;4.57;;;4.18;;
18340;SDS011;9296;48.084;16.352;2023-05-24T04:26:41;6.45;;;4.15;;
18340;SDS011;9296;48.084;16.352;2023-05-24T04:29:10;5.10;;;4.05;;
18340;SDS011;9296;48.084;16.352;2023-05-24T04:31:37;4.43;;;4.00;;
18340;SDS011;9296;48.084;16.352;2023-05-24T04:34:06;4.75;;;4.03;;
18340;SDS011;9296;48.084;16.352;2023-05-24T04:36:34;4.60;;;4.10;;
18340;SDS011;9296;48.084;16.352;2023-05-24T04:42:05;4.90;;;3.70;;
18340;SDS011;9296;48.084;16.352;2023-05-24T04:44:34;4.30;;;3.63;;
18340;SDS011;9296;48.084;16.352;2023-05-24T04:47:01;4.63;;;3.55;;
18340;SDS011;9296;48.084;16.352;2023-05-24T04:49:28;4.28;;;3.47;;
18340;SDS011;9296;48.084;16.352;2023-05-24T04:51:56;4.43;;;3.65;;
18340;SDS011;9296;48.084;16.352;2023-05-24T04:54:23;5.38;;;3.97;;
18340;SDS011;9296;48.084;16.352;2023-05-24T04:56:50;4.32;;;3.30;;
18340;SDS011;9296;48.084;16.352;2023-05-24T04:59:17;4.45;;;3.67;;
18340;SDS011;9296;48.084;16.352;2023-05-24T05:01:46;5.70;;;3.13;;
18340;SDS011;9296;48.084;16.352;2023-05-24T05:04:13;4.40;;;3.22;;
18340;SDS011;9296;48.084;16.352;2023-05-24T05:06:41;4.32;;;3.63;;
18340;SDS011;9296;48.084;16.352;2023-05-24T05:09:08;3.25;;;2.95;;
18340;SDS011;9296;48.084;16.352;2023-05-24T05:11:37;3.78;;;3.30;;
18340;SDS011;9296;48.084;16.352;2023-05-24T05:14:05;4.35;;;3.03;;
18340;SDS011;9296;48.084;16.352;2023-05-24T05:16:33;4.05;;;3.40;;
18340;SDS011;9296;48.084;16.352;2023-05-24T05:19:02;4.32;;;3.92;;
18340;SDS011;9296;48.084;16.352;2023-05-24T05:21:29;4.20;;;3.78;;
18340;SDS011;9296;48.084;16.352;2023-05-24T05:29:47;5.18;;;3.90;;
18340;SDS011;9296;48.084;16.352;2023-05-24T05:32:14;3.88;;;3.47;;
18340;SDS011;9296;48.084;16.352;2023-05-24T05:34:43;3.72;;;3.33;;
18340;SDS011;9296;48.084;16.352;2023-05-24T05:37:10;3.80;;;3.35;;
18340;SDS011;9296;48.084;16.352;2023-05-24T05:39:37;4.82;;;3.65;;
18340;SDS011;9296;48.084;16.352;2023-05-24T05:42:05;4.68;;;3.50;;
18340;SDS011;9296;48.084;16.352;2023-05-24T05:44:32;3.20;;;2.90;;
18340;SDS011;9296;48.084;16.352;2023-05-24T05:47:00;3.33;;;3.03;;
18340;SDS011;9296;48.084;16.352;2023-05-24T05:49:27;3.28;;;2.97;;
18340;SDS011;9296;48.084;16.352;2023-05-24T05:51:57;3.95;;;3.00;;
18340;SDS011;9296;48.084;16.352;2023-05-24T05:57:27;3.38;;;2.83;;
18340;SDS011;9296;48.084;16.352;2023-05-24T05:59:55;2.92;;;2.60;;
18340;SDS011;9296;48.084;16.352;2023-05-24T06:02:22;3.30;;;2.50;;
18340;SDS011;9296;48.084;16.352;2023-05-24T06:04:49;2.83;;;2.60;;
18340;SDS011;9296;48.084;16.352;2023-05-24T06:07:18;2.80;;;2.60;;
18340;SDS011;9296;48.084;16.352;2023-05-24T06:09:45;3.03;;;2.58;;
18340;SDS011;9296;48.084;16.352;2023-05-24T06:12:12;3.45;;;2.60;;
18340;SDS011;9296;48.084;16.352;2023-05-24T06:14:39;3.10;;;2.80;;
18340;SDS011;9296;48.084;16.352;2023-05-24T06:17:07;2.80;;;2.60;;
18340;SDS011;9296;48.084;16.352;2023-05-24T06:19:35;2.75;;;2.50;;
18340;SDS011;9296;48.084;16.352;2023-05-24T06:22:04;2.75;;;2.55;;
18340;SDS011;9296;48.084;16.352;2023-05-24T06:24:34;4.32;;;2.70;;
18340;SDS011;9296;48.084;16.352;2023-05-24T06:27:01;4.22;;;3.13;;
18340;SDS011;9296;48.084;16.352;2023-05-24T06:29:28;2.90;;;2.63;;
18340;SDS011;9296;48.084;16.352;2023-05-24T06:31:55;2.67;;;2.45;;
18340;SDS011;9296;48.084;16.352;2023-05-24T06:34:23;3.10;;;2.80;;
18340;SDS011;9296;48.084;16.352;2023-05-24T06:36:50;2.75;;;2.47;;
18340;SDS011;9296;48.084;16.352;2023-05-24T06:39:17;2.75;;;2.55;;
18340;SDS011;9296;48.084;16.352;2023-05-24T06:41:46;2.75;;;2.55;;
18340;SDS011;9296;48.084;16.352;2023-05-24T06:44:15;2.88;;;2.60;;
18340;SDS011;9296;48.084;16.352;2023-05-24T06:46:42;3.50;;;2.30;;
18340;SDS011;9296;48.084;16.352;2023-05-24T06:49:10;2.38;;;2.13;;
18340;SDS011;9296;48.084;16.352;2023-05-24T06:51:37;2.28;;;2.08;;
18340;SDS011;9296;48.084;16.352;2023-05-24T06:57:10;2.85;;;2.42;;
18340;SDS011;9296;48.084;16.352;2023-05-24T06:59:37;2.67;;;2.47;;
18340;SDS011;9296;48.084;16.352;2023-05-24T07:02:04;2.47;;;2.13;;
18340;SDS011;9296;48.084;16.352;2023-05-24T07:04:32;2.58;;;2.38;;
18340;SDS011;9296;48.084;16.352;2023-05-24T07:07:00;2.45;;;2.25;;
18340;SDS011;9296;48.084;16.352;2023-05-24T07:12:32;3.03;;;2.35;;
18340;SDS011;9296;48.084;16.352;2023-05-24T07:15:00;3.53;;;2.60;;
18340;SDS011;9296;48.084;16.352;2023-05-24T07:17:27;2.30;;;2.10;;
18340;SDS011;9296;48.084;16.352;2023-05-24T07:19:54;2.17;;;2.08;;
18340;SDS011;9296;48.084;16.352;2023-05-24T07:22:21;2.35;;;2.15;;
18340;SDS011;9296;48.084;16.352;2023-05-24T07:27:40;3.17;;;2.00;;
18340;SDS011;9296;48.084;16.352;2023-05-24T07:30:07;3.22;;;2.03;;
18340;SDS011;9296;48.084;16.352;2023-05-24T07:32:34;3.00;;;1.98;;
18340;SDS011;9296;48.084;16.352;2023-05-24T07:35:02;3.20;;;2.10;;
18340;SDS011;9296;48.084;16.352;2023-05-24T07:37:29;2.67;;;1.98;;
18340;SDS011;9296;48.084;16.352;2023-05-24T07:43:01;12.45;;;1.95;;
18340;SDS011;9296;48.084;16.352;2023-05-24T07:45:29;2.30;;;2.10;;
18340;SDS011;9296;48.084;16.352;2023-05-24T07:47:56;2.85;;;2.20;;
18340;SDS011;9296;48.084;16.352;2023-05-24T07:50:23;2.20;;;2.00;;
18340;SDS011;9296;48.084;16.352;2023-05-24T07:52:50;1.90;;;1.80;;
18340;SDS011;9296;48.084;16.352;2023-05-24T07:55:37;2.10;;;1.90;;
18340;SDS011;9296;48.084;16.352;2023-05-24T07:58:05;4.25;;;2.10;;
18340;SDS011;9296;48.084;16.352;2023-05-24T08:00:33;2.47;;;2.28;;
18340;SDS011;9296;48.084;16.352;2023-05-24T08:03:00;2.08;;;1.75;;
18340;SDS011;9296;48.084;16.352;2023-05-24T08:05:29;1.80;;;1.70;;
18340;SDS011;9296;48.084;16.352;2023-05-24T08:07:56;1.85;;;1.70;;
18340;SDS011;9296;48.084;16.352;2023-05-24T08:10:42;2.45;;;1.80;;
18340;SDS011;9296;48.084;16.352;2023-05-24T08:13:11;2.03;;;1.92;;
18340;SDS011;9296;48.084;16.352;2023-05-24T08:15:39;1.90;;;1.80;;
18340;SDS011;9296;48.084;16.352;2023-05-24T08:18:06;2.97;;;1.95;;
18340;SDS011;9296;48.084;16.352;2023-05-24T08:20:33;2.65;;;2.10;;
18340;SDS011;9296;48.084;16.352;2023-05-24T08:23:01;2.13;;;1.98;;
18340;SDS011;9296;48.084;16.352;2023-05-24T08:25:46;2.58;;;2.38;;
18340;SDS011;9296;48.084;16.352;2023-05-24T08:28:15;2.60;;;2.40;;
18340;SDS011;9296;48.084;16.352;2023-05-24T08:30:42;2.22;;;2.08;;
18340;SDS011;9296;48.084;16.352;2023-05-24T08:33:09;2.35;;;2.15;;
18340;SDS011;9296;48.084;16.352;2023-05-24T08:35:37;2.40;;;2.20;;
18340;SDS011;9296;48.084;16.352;2023-05-24T08:38:04;2.65;;;2.38;;
18340;SDS011;9296;48.084;16.352;2023-05-24T08:40:31;2.55;;;2.33;;
18340;SDS011;9296;48.084;16.352;2023-05-24T08:42:59;2.10;;;1.90;;
18340;SDS011;9296;48.084;16.352;2023-05-24T08:45:29;3.05;;;2.15;;
18340;SDS011;9296;48.084;16.352;2023-05-24T08:47:57;4.13;;;2.15;;
18340;SDS011;9296;48.084;16.352;2023-05-24T08:50:24;1.83;;;1.73;;
18340;SDS011;9296;48.084;16.352;2023-05-24T08:52:51;1.83;;;1.70;;
18340;SDS011;9296;48.084;16.352;2023-05-24T08:58:22;3.70;;;1.92;;
18340;SDS011;9296;48.084;16.352;2023-05-24T09:00:52;1.92;;;1.77;;
18340;SDS011;9296;48.084;16.352;2023-05-24T09:03:19;2.00;;;1.90;;
18340;SDS011;9296;48.084;16.352;2023-05-24T09:05:47;1.75;;;1.65;;
18340;SDS011;9296;48.084;16.352;2023-05-24T09:08:14;2.08;;;1.98;;
18340;SDS011;9296;48.084;16.352;2023-05-24T09:13:47;3.22;;;1.52;;
18340;SDS011;9296;48.084;16.352;2023-05-24T09:16:16;1.90;;;1.73;;
18340;SDS011;9296;48.084;16.352;2023-05-24T09:18:43;3.03;;;1.67;;
18340;SDS011;9296;48.084;16.352;2023-05-24T09:21:10;2.92;;;1.70;;
18340;SDS011;9296;48.084;16.352;2023-05-24T09:23:38;2.67;;;1.80;;
18340;SDS011;9296;48.084;16.352;2023-05-24T09:29:28;1.90;;;1.80;;
18340;SDS011;9296;48.084;16.352;2023-05-24T09:31:56;2.30;;;2.10;;
18340;SDS011;9296;48.084;16.352;2023-05-24T09:34:26;2.13;;;1.92;;
18340;SDS011;9296;48.084;16.352;2023-05-24T09:36:53;3.58;;;2.10;;
18340;SDS011;9296;48.084;16.352;2023-05-24T09:39:20;2.30;;;2.10;;
18340;SDS011;9296;48.084;16.352;2023-05-24T09:41:51;2.08;;;1.98;;
18340;SDS011;9296;48.084;16.352;2023-05-24T09:44:23;1.83;;;1.73;;
18340;SDS011;9296;48.084;16.352;2023-05-24T09:46:50;1.60;;;1.50;;
18340;SDS011;9296;48.084;16.352;2023-05-24T09:49:19;2.05;;;1.60;;
18340;SDS011;9296;48.084;16.352;2023-05-24T09:51:46;2.35;;;1.70;;
18340;SDS011;9296;48.084;16.352;2023-05-24T09:54:13;2.30;;;2.10;;
18340;SDS011;9296;48.084;16.352;2023-05-24T09:56:40;2.03;;;1.70;;
18340;SDS011;9296;48.084;16.352;2023-05-24T09:59:07;2.42;;;1.73;;
18340;SDS011;9296;48.084;16.352;2023-05-24T10:01:34;2.28;;;2.08;;
18340;SDS011;9296;48.084;16.352;2023-05-24T10:04:01;2.10;;;1.90;;
18340;SDS011;9296;48.084;16.352;2023-05-24T10:06:34;2.25;;;2.05;;
18340;SDS011;9296;48.084;16.352;2023-05-24T10:15:46;2.20;;;2.00;;
18340;SDS011;9296;48.084;16.352;2023-05-24T10:18:13;2.22;;;1.90;;
18340;SDS011;9296;48.084;16.352;2023-05-24T10:20:40;2.47;;;2.10;;
18340;SDS011;9296;48.084;16.352;2023-05-24T10:23:08;4.03;;;1.92;;
18340;SDS011;9296;48.084;16.352;2023-05-24T10:28:59;2.72;;;1.98;;
18340;SDS011;9296;48.084;16.352;2023-05-24T10:31:31;2.28;;;1.88;;
18340;SDS011;9296;48.084;16.352;2023-05-24T10:34:01;2.78;;;2.00;;
18340;SDS011;9296;48.084;16.352;2023-05-24T10:36:30;3.47;;;1.70;;
18340;SDS011;9296;48.084;16.352;2023-05-24T10:39:00;2.03;;;1.90;;
18340;SDS011;9296;48.084;16.352;2023-05-24T10:41:45;1.70;;;1.60;;
18340;SDS011;9296;48.084;16.352;2023-05-24T10:44:12;2.13;;;1.85;;
18340;SDS011;9296;48.084;16.352;2023-05-24T10:47:03;2.03;;;1.90;;
18340;SDS011;9296;48.084;16.352;2023-05-24T10:49:33;1.70;;;1.60;;
18340;SDS011;9296;48.084;16.352;2023-05-24T10:52:01;2.70;;;1.90;;
18340;SDS011;9296;48.084;16.352;2023-05-24T10:57:55;2.15;;;1.58;;
18340;SDS011;9296;48.084;16.352;2023-05-24T11:00:25;3.50;;;1.90;;
18340;SDS011;9296;48.084;16.352;2023-05-24T11:02:57;1.88;;;1.77;;
18340;SDS011;9296;48.084;16.352;2023-05-24T11:05:31;3.13;;;1.52;;
18340;SDS011;9296;48.084;16.352;2023-05-24T11:07:59;2.90;;;1.95;;
18340;SDS011;9296;48.084;16.352;2023-05-24T11:10:31;2.25;;;1.95;;
18340;SDS011;9296;48.084;16.352;2023-05-24T11:13:00;1.98;;;1.73;;
18340;SDS011;9296;48.084;16.352;2023-05-24T11:15:28;2.58;;;1.73;;
18340;SDS011;9296;48.084;16.352;2023-05-24T11:18:12;1.95;;;1.75;;
18340;SDS011;9296;48.084;16.352;2023-05-24T11:20:40;2.97;;;1.92;;
18340;SDS011;9296;48.084;16.352;2023-05-24T11:23:08;3.03;;;1.98;;
18340;SDS011;9296;48.084;16.352;2023-05-24T11:25:53;2.35;;;1.80;;
18340;SDS011;9296;48.084;16.352;2023-05-24T11:28:22;2.17;;;1.77;;
18340;SDS011;9296;48.084;16.352;2023-05-24T11:30:51;3.03;;;1.65;;
18340;SDS011;9296;48.084;16.352;2023-05-24T11:33:18;3.45;;;1.80;;
18340;SDS011;9296;48.084;16.352;2023-05-24T11:35:47;2.22;;;1.88;;
18340;SDS011;9296;48.084;16.352;2023-05-24T11:38:16;3.38;;;1.85;;
18340;SDS011;9296;48.084;16.352;2023-05-24T11:43:50;1.77;;;1.60;;
18340;SDS011;9296;48.084;16.352;2023-05-24T11:46:17;2.10;;;1.60;;
18340;SDS011;9296;48.084;16.352;2023-05-24T11:48:53;1.98;;;1.70;;
18340;SDS011;9296;48.084;16.352;2023-05-24T11:51:24;2.70;;;2.10;;
18340;SDS011;9296;48.084;16.352;2023-05-24T11:53:52;2.20;;;1.80;;
18340;SDS011;9296;48.084;16.352;2023-05-24T11:59:42;3.72;;;2.03;;
18340;SDS011;9296;48.084;16.352;2023-05-24T12:02:09;4.15;;;2.00;;
18340;SDS011;9296;48.084;16.352;2023-05-24T12:04:36;3.17;;;2.15;;
18340;SDS011;9296;48.084;16.352;2023-05-24T12:07:03;1.95;;;1.77;;
18340;SDS011;9296;48.084;16.352;2023-05-24T12:09:35;4.57;;;2.20;;
18340;SDS011;9296;48.084;16.352;2023-05-24T12:12:02;2.72;;;1.75;;
18340;SDS011;9296;48.084;16.352;2023-05-24T12:14:32;2.70;;;2.00;;
18340;SDS011;9296;48.084;16.352;2023-05-24T12:17:02;2.25;;;1.95;;
18340;SDS011;9296;48.084;16.352;2023-05-24T12:19:30;3.22;;;1.80;;
18340;SDS011;9296;48.084;16.352;2023-05-24T12:21:59;1.95;;;1.70;;
18340;SDS011;9296;48.084;16.352;2023-05-24T12:24:26;2.55;;;2.05;;
18340;SDS011;9296;48.084;16.352;2023-05-24T12:26:56;2.45;;;1.90;;
18340;SDS011;9296;48.084;16.352;2023-05-24T12:29:25;2.47;;;2.17;;
18340;SDS011;9296;48.084;16.352;2023-05-24T12:31:53;3.67;;;2.17;;
18340;SDS011;9296;48.084;16.352;2023-05-24T12:34:21;2.20;;;1.83;;
18340;SDS011;9296;48.084;16.352;2023-05-24T12:36:50;2.97;;;2.20;;
18340;SDS011;9296;48.084;16.352;2023-05-24T12:39:18;2.33;;;1.92;;
18340;SDS011;9296;48.084;16.352;2023-05-24T12:41:49;3.50;;;1.98;;
18340;SDS011;9296;48.084;16.352;2023-05-24T12:44:21;2.10;;;1.90;;
18340;SDS011;9296;48.084;16.352;2023-05-24T12:46:50;4.10;;;2.00;;
18340;SDS011;9296;48.084;16.352;2023-05-24T12:49:18;3.50;;;2.17;;
18340;SDS011;9296;48.084;16.352;2023-05-24T12:51:46;2.38;;;2.05;;
18340;SDS011;9296;48.084;16.352;2023-05-24T12:54:13;3.22;;;1.95;;
18340;SDS011;9296;48.084;16.352;2023-05-24T12:59:45;3.45;;;2.00;;
18340;SDS011;9296;48.084;16.352;2023-05-24T13:02:12;2.20;;;1.77;;
18340;SDS011;9296;48.084;16.352;2023-05-24T13:04:40;3.33;;;2.22;;
18340;SDS011;9296;48.084;16.352;2023-05-24T13:07:08;2.08;;;1.80;;
18340;SDS011;9296;48.084;16.352;2023-05-24T13:09:35;2.83;;;2.33;;
18340;SDS011;9296;48.084;16.352;2023-05-24T13:12:02;4.95;;;2.17;;
18340;SDS011;9296;48.084;16.352;2023-05-24T13:14:29;3.03;;;2.10;;
18340;SDS011;9296;48.084;16.352;2023-05-24T13:16:56;3.50;;;1.90;;
18340;SDS011;9296;48.084;16.352;2023-05-24T13:19:23;3.70;;;2.15;;
18340;SDS011;9296;48.084;16.352;2023-05-24T13:21:50;3.25;;;2.20;;
18340;SDS011;9296;48.084;16.352;2023-05-24T13:24:20;2.33;;;1.88;;
18340;SDS011;9296;48.084;16.352;2023-05-24T13:26:47;3.63;;;2.10;;
18340;SDS011;9296;48.084;16.352;2023-05-24T13:29:14;2.85;;;2.05;;
18340;SDS011;9296;48.084;16.352;2023-05-24T13:31:41;2.58;;;2.20;;
18340;SDS011;9296;48.084;16.352;2023-05-24T13:34:07;2.40;;;2.00;;
18340;SDS011;9296;48.084;16.352;2023-05-24T13:36:35;4.22;;;2.22;;
18340;SDS011;9296;48.084;16.352;2023-05-24T13:39:02;2.40;;;2.00;;
18340;SDS011;9296;48.084;16.352;2023-05-24T13:44:54;4.00;;;2.33;;
18340;SDS011;9296;48.084;16.352;2023-05-24T13:47:23;3.25;;;2.30;;
18340;SDS011;9296;48.084;16.352;2023-05-24T13:49:50;6.68;;;2.97;;
18340;SDS011;9296;48.084;16.352;2023-05-24T13:52:17;3.22;;;2.10;;
18340;SDS011;9296;48.084;16.352;2023-05-24T14:01:11;2.40;;;2.10;;
18340;SDS011;9296;48.084;16.352;2023-05-24T14:03:38;3.03;;;2.10;;
18340;SDS011;9296;48.084;16.352;2023-05-24T14:06:05;3.00;;;2.15;;
18340;SDS011;9296;48.084;16.352;2023-05-24T14:08:32;3.58;;;2.28;;
18340;SDS011;9296;48.084;16.352;2023-05-24T14:14:36;3.63;;;2.25;;
18340;SDS011;9296;48.084;16.352;2023-05-24T14:17:05;2.90;;;2.00;;
18340;SDS011;9296;48.084;16.352;2023-05-24T14:19:31;3.70;;;2.30;;
18340;SDS011;9296;48.084;16.352;2023-05-24T14:21:58;4.13;;;2.58;;
18340;SDS011;9296;48.084;16.352;2023-05-24T14:24:26;3.83;;;2.22;;
18340;SDS011;9296;48.084;16.352;2023-05-24T14:29:58;3.83;;;2.30;;
18340;SDS011;9296;48.084;16.352;2023-05-24T14:32:26;4.05;;;2.40;;
18340;SDS011;9296;48.084;16.352;2023-05-24T14:34:53;3.40;;;2.55;;
18340;SDS011;9296;48.084;16.352;2023-05-24T14:37:20;2.75;;;2.45;;
18340;SDS011;9296;48.084;16.352;2023-05-24T14:39:47;4.07;;;2.80;;
18340;SDS011;9296;48.084;16.352;2023-05-24T14:45:35;4.07;;;2.88;;
18340;SDS011;9296;48.084;16.352;2023-05-24T14:48:06;3.28;;;2.47;;
18340;SDS011;9296;48.084;16.352;2023-05-24T14:50:35;3.72;;;2.30;;
18340;SDS011;9296;48.084;16.352;2023-05-24T14:53:02;8.80;;;3.25;;
18340;SDS011;9296;48.084;16.352;2023-05-24T14:55:51;4.72;;;2.38;;
18340;SDS011;9296;48.084;16.352;2023-05-24T14:58:18;5.65;;;2.90;;
18340;SDS011;9296;48.084;16.352;2023-05-24T15:00:46;4.70;;;2.50;;
18340;SDS011;9296;48.084;16.352;2023-05-24T15:03:14;4.38;;;2.60;;
18340;SDS011;9296;48.084;16.352;2023-05-24T15:05:41;3.65;;;2.17;;
18340;SDS011;9296;48.084;16.352;2023-05-24T15:08:08;4.95;;;2.55;;
18340;SDS011;9296;48.084;16.352;2023-05-24T15:10:36;4.60;;;2.53;;
18340;SDS011;9296;48.084;16.352;2023-05-24T15:13:04;5.18;;;2.70;;
18340;SDS011;9296;48.084;16.352;2023-05-24T15:15:30;3.83;;;2.50;;
18340;SDS011;9296;48.084;16.352;2023-05-24T15:17:57;4.93;;;2.70;;
18340;SDS011;9296;48.084;16.352;2023-05-24T15:20:26;4.88;;;3.05;;
18340;SDS011;9296;48.084;16.352;2023-05-24T15:22:53;4.10;;;2.42;;
18340;SDS011;9296;48.084;16.352;2023-05-24T15:32:05;4.65;;;2.92;;
18340;SDS011;9296;48.084;16.352;2023-05-24T15:34:32;5.60;;;3.00;;
18340;SDS011;9296;48.084;16.352;2023-05-24T15:37:00;5.15;;;2.85;;
18340;SDS011;9296;48.084;16.352;2023-05-24T15:39:27;5.53;;;2.97;;
18340;SDS011;9296;48.084;16.352;2023-05-24T15:42:12;5.22;;;2.80;;
18340;SDS011;9296;48.084;16.352;2023-05-24T15:44:39;5.68;;;2.63;;
18340;SDS011;9296;48.084;16.352;2023-05-24T15:47:06;4.47;;;2.80;;
18340;SDS011;9296;48.084;16.352;2023-05-24T15:49:33;6.20;;;2.90;;
18340;SDS011;9296;48.084;16.352;2023-05-24T15:52:02;4.85;;;2.90;;
18340;SDS011;9296;48.084;16.352;2023-05-24T15:54:29;6.80;;;2.90;;
18340;SDS011;9296;48.084;16.352;2023-05-24T16:00:17;4.22;;;2.50;;
18340;SDS011;9296;48.084;16.352;2023-05-24T16:02:44;6.88;;;2.50;;
18340;SDS011;9296;48.084;16.352;2023-05-24T16:05:11;5.63;;;2.85;;
18340;SDS011;9296;48.084;16.352;2023-05-24T16:07:39;5.35;;;3.10;;
18340;SDS011;9296;48.084;16.352;2023-05-24T16:10:06;3.80;;;2.70;;
18340;SDS011;9296;48.084;16.352;2023-05-24T16:15:55;5.95;;;3.22;;
18340;SDS011;9296;48.084;16.352;2023-05-24T16:18:22;4.38;;;2.78;;
18340;SDS011;9296;48.084;16.352;2023-05-24T16:20:51;6.90;;;2.70;;
18340;SDS011;9296;48.084;16.352;2023-05-24T16:23:19;3.83;;;2.85;;
18340;SDS011;9296;48.084;16.352;2023-05-24T16:25:47;7.20;;;3.80;;
18340;SDS011;9296;48.084;16.352;2023-05-24T16:28:14;4.63;;;3.00;;
18340;SDS011;9296;48.084;16.352;2023-05-24T16:30:41;5.13;;;3.00;;
18340;SDS011;9296;48.084;16.352;2023-05-24T16:33:08;5.03;;;2.85;;
18340;SDS011;9296;48.084;16.352;2023-05-24T16:35:35;6.07;;;2.88;;
18340;SDS011;9296;48.084;16.352;2023-05-24T16:38:02;4.55;;;2.80;;
18340;SDS011;9296;48.084;16.352;2023-05-24T16:40:30;4.97;;;2.72;;
18340;SDS011;9296;48.084;16.352;2023-05-24T16:46:19;4.75;;;2.65;;